Time;durP1;ratioP1;P1;durP2;ratioP2;P2;SDS_P1;SDS_P2;PMS_P1;PMS_P2;Temp;Humidity;BMP_temperature;BMP_pressure;BME280_temperature;BME280_humidity;BME280_pressure;Samples;Min_cycle;Max_cycle;Signal;HPM_P1;HPM_P2
2024/04/26 00:01:21;;;;;;;8.27;2.70;;;4.40;1.00;;;;;;5451495;26;20331;-73
2024/04/26 00:03:47;;;;;;;4.50;2.60;;;4.40;1.00;;;;;;5451579;26;20246;-73
2024/04/26 00:06:13;;;;;;;4.83;2.17;;;4.50;1.00;;;;;;5451501;26;20220;-71
2024/04/26 00:08:40;;;;;;;13.10;2.80;;;4.50;1.00;;;;;;5451375;26;20221;-72
2024/04/26 00:11:08;;;;;;;6.97;3.20;;;4.60;1.00;;;;;;5452235;26;20558;-72
2024/04/26 00:13:34;;;;;;;5.85;2.80;;;4.70;1.00;;;;;;5450914;26;20302;-70
2024/04/26 00:16:01;;;;;;;7.25;2.95;;;4.70;1.00;;;;;;5451671;26;20699;-71
2024/04/26 00:18:34;;;;;;;5.30;2.65;;;4.70;1.00;;;;;;5419956;26;20267;-71
2024/04/26 00:21:00;;;;;;;3.55;3.13;;;4.70;1.00;;;;;;5452708;26;20400;-72
2024/04/26 00:23:26;;;;;;;3.27;2.50;;;4.70;1.00;;;;;;5418502;26;20233;-73
2024/04/26 00:25:52;;;;;;;5.75;3.35;;;4.70;1.00;;;;;;5451459;26;20446;-73
2024/04/26 00:28:17;;;;;;;3.73;2.13;;;4.60;1.00;;;;;;5451778;26;20224;-72
2024/04/26 00:30:43;;;;;;;3.17;2.43;;;4.50;1.00;;;;;;5424040;26;20241;-71
2024/04/26 00:33:09;;;;;;;10.93;2.80;;;4.30;1.00;;;;;;5455161;26;20347;-72
2024/04/26 00:35:34;;;;;;;4.15;2.55;;;4.10;1.00;;;;;;5456594;26;20283;-71
2024/04/26 00:38:00;;;;;;;5.47;3.87;;;3.80;1.00;;;;;;5457522;26;20229;-72
2024/04/26 00:40:28;;;;;;;7.87;5.23;;;3.70;1.00;;;;;;5457727;26;20275;-72
2024/04/26 00:42:55;;;;;;;6.45;5.32;;;3.50;1.00;;;;;;5460970;26;20219;-71
2024/04/26 00:45:20;;;;;;;9.90;4.38;;;3.40;1.00;;;;;;5457457;26;20285;-71
2024/04/26 00:47:46;;;;;;;8.93;4.80;;;3.20;1.00;;;;;;5455868;26;20223;-71
2024/04/26 00:50:13;;;;;;;10.50;5.97;;;3.00;1.00;;;;;;5423774;26;20324;-72
2024/04/26 00:52:41;;;;;;;7.40;5.05;;;2.80;1.30;;;;;;5422930;26;20240;-71
2024/04/26 00:55:09;;;;;;;9.75;5.43;;;2.60;2.60;;;;;;5450675;26;20565;-70
2024/04/26 00:57:34;;;;;;;9.23;5.22;;;2.50;4.10;;;;;;5450809;26;20608;-71
2024/04/26 01:00:00;;;;;;;5.90;4.57;;;2.40;5.60;;;;;;5450762;26;20265;-71
2024/04/26 01:02:26;;;;;;;6.50;5.30;;;2.30;6.30;;;;;;5451244;26;20592;-71
2024/04/26 01:04:52;;;;;;;7.40;5.00;;;2.20;6.90;;;;;;5450859;26;20503;-71
2024/04/26 01:07:18;;;;;;;5.80;4.97;;;2.10;8.90;;;;;;5418447;26;20448;-70
2024/04/26 01:09:46;;;;;;;5.63;4.43;;;2.00;8.50;;;;;;5451083;26;20468;-71
2024/04/26 01:12:11;;;;;;;9.27;5.45;;;1.90;9.60;;;;;;5451562;26;20264;-72
2024/04/26 01:14:37;;;;;;;7.00;5.37;;;1.90;10.10;;;;;;5450937;26;20223;-70
2024/04/26 01:17:02;;;;;;;12.43;6.70;;;1.80;10.30;;;;;;5450251;26;20219;-71
2024/04/26 01:19:28;;;;;;;10.23;6.17;;;1.80;11.50;;;;;;5449988;26;20230;-72
2024/04/26 01:22:03;;;;;;;6.90;5.47;;;1.80;12.00;;;;;;5449776;26;20265;-71
2024/04/26 01:24:29;;;;;;;7.53;5.43;;;1.70;11.50;;;;;;5449691;26;20226;-71
2024/04/26 01:26:56;;;;;;;8.77;4.67;;;1.70;12.40;;;;;;5449859;26;20269;-71
2024/04/26 01:29:22;;;;;;;9.23;5.80;;;1.70;13.20;;;;;;5449913;26;20230;-71
2024/04/26 01:31:47;;;;;;;5.87;5.03;;;1.60;13.50;;;;;;5449592;26;20556;-71
2024/04/26 01:34:13;;;;;;;7.10;5.00;;;1.50;14.60;;;;;;5448510;26;20249;-70
2024/04/26 01:36:38;;;;;;;7.50;5.77;;;1.50;14.90;;;;;;5448993;26;20219;-70
2024/04/26 01:39:04;;;;;;;9.63;6.00;;;1.40;15.50;;;;;;5449387;26;20226;-70
2024/04/26 01:41:30;;;;;;;8.60;4.77;;;1.40;16.00;;;;;;5449578;26;20318;-70
2024/04/26 01:43:56;;;;;;;10.10;6.20;;;1.30;17.10;;;;;;5417758;26;20223;-71
2024/04/26 01:46:21;;;;;;;6.13;4.53;;;1.30;17.70;;;;;;5417453;26;20452;-71
2024/04/26 01:48:47;;;;;;;6.23;5.20;;;1.30;18.50;;;;;;5449215;26;20338;-70
2024/04/26 01:51:12;;;;;;;8.33;5.27;;;1.30;17.30;;;;;;5403324;21;20811;-69
2024/04/26 01:53:38;;;;;;;8.17;5.03;;;1.20;17.70;;;;;;5371212;26;20270;-69
2024/04/26 01:56:04;;;;;;;10.00;6.23;;;1.20;20.10;;;;;;5370948;26;20221;-70
2024/04/26 01:58:30;;;;;;;13.40;5.45;;;1.20;20.50;;;;;;5370768;26;20225;-69
2024/04/26 02:00:55;;;;;;;9.27;6.03;;;1.20;20.90;;;;;;5370807;26;20275;-69
2024/04/26 02:03:21;;;;;;;8.23;6.20;;;1.20;21.30;;;;;;5368618;26;20256;-69
2024/04/26 02:05:46;;;;;;;8.00;6.00;;;1.10;21.80;;;;;;5370228;26;20746;-70
2024/04/26 02:08:12;;;;;;;8.23;5.70;;;1.10;21.80;;;;;;5370431;26;20333;-68
2024/04/26 02:10:37;;;;;;;10.63;6.70;;;1.10;21.80;;;;;;5370159;26;20272;-69
2024/04/26 02:13:03;;;;;;;13.50;6.80;;;1.10;22.30;;;;;;5370339;26;20691;-69
2024/04/26 02:15:29;;;;;;;8.87;5.80;;;1.00;22.90;;;;;;5370259;26;20217;-71
2024/04/26 02:17:54;;;;;;;8.60;6.70;;;1.00;24.60;;;;;;5368616;26;20232;-71
2024/04/26 02:20:20;;;;;;;8.33;6.00;;;1.00;24.40;;;;;;5368384;26;20574;-70
2024/04/26 02:22:46;;;;;;;11.80;6.00;;;1.00;25.80;;;;;;5370718;26;20225;-69
2024/04/26 02:25:12;;;;;;;7.73;5.23;;;0.90;24.90;;;;;;5370124;26;20263;-70
2024/04/26 02:27:37;;;;;;;6.20;5.47;;;0.90;24.90;;;;;;5370093;26;20240;-69
2024/04/26 02:30:03;;;;;;;9.07;6.90;;;0.90;24.30;;;;;;5368344;26;20383;-70
2024/04/26 02:32:29;;;;;;;8.30;6.00;;;0.80;25.00;;;;;;5370069;26;20221;-70
2024/04/26 02:34:54;;;;;;;6.80;5.67;;;0.80;25.40;;;;;;5370178;26;20988;-70
2024/04/26 02:37:20;;;;;;;11.47;5.40;;;0.80;25.70;;;;;;5369946;26;20602;-70
2024/04/26 02:39:45;;;;;;;10.13;5.97;;;0.80;25.70;;;;;;5369968;26;20247;-71
2024/04/26 02:42:11;;;;;;;10.00;6.47;;;0.80;25.70;;;;;;5369691;26;20263;-68
2024/04/26 02:44:36;;;;;;;8.03;6.10;;;0.80;26.60;;;;;;5367878;26;20223;-72
2024/04/26 02:47:02;;;;;;;7.80;6.10;;;0.90;26.30;;;;;;5370135;26;20660;-71
2024/04/26 02:49:30;;;;;;;9.47;7.23;;;1.00;26.40;;;;;;5373230;26;20818;-71
2024/04/26 02:51:55;;;;;;;11.52;6.45;;;1.10;25.90;;;;;;5373727;26;20428;-69
2024/04/26 02:54:21;;;;;;;7.90;7.10;;;1.10;25.90;;;;;;5373773;26;20291;-70
2024/04/26 02:56:46;;;;;;;9.43;7.37;;;1.10;25.90;;;;;;5371488;26;20260;-70
2024/04/26 02:59:12;;;;;;;7.83;6.40;;;1.20;27.60;;;;;;5372441;26;20255;-70
2024/04/26 03:01:44;;;;;;;9.07;6.33;;;1.30;26.70;;;;;;5374325;26;20325;-69
2024/04/26 03:04:10;;;;;;;14.13;6.40;;;1.40;27.40;;;;;;5374304;26;20263;-70
2024/04/26 03:06:40;;;;;;;8.53;6.73;;;1.50;26.10;;;;;;5374135;26;20221;-69
2024/04/26 03:09:06;;;;;;;11.18;6.88;;;1.60;25.10;;;;;;5374925;26;20602;-69
2024/04/26 03:11:32;;;;;;;8.52;7.00;;;1.70;24.10;;;;;;5372943;26;20233;-69
2024/04/26 03:13:58;;;;;;;7.87;6.20;;;1.80;23.20;;;;;;5374512;26;20747;-69
2024/04/26 03:16:23;;;;;;;9.07;6.33;;;2.00;21.70;;;;;;5373703;26;20402;-71
2024/04/26 03:18:49;;;;;;;8.60;6.40;;;2.00;21.70;;;;;;5374272;26;20224;-69
2024/04/26 03:21:14;;;;;;;6.63;5.50;;;2.00;20.90;;;;;;5374886;26;20276;-70
2024/04/26 03:23:40;;;;;;;9.43;6.50;;;2.10;22.40;;;;;;5373252;26;20233;-69
2024/04/26 03:26:12;;;;;;;8.90;5.83;;;2.10;20.80;;;;;;5373516;26;20333;-69
2024/04/26 03:28:38;;;;;;;9.00;7.22;;;2.20;20.70;;;;;;5373221;26;20225;-69
2024/04/26 03:31:03;;;;;;;8.67;5.67;;;2.30;19.50;;;;;;5371116;26;20244;-70
2024/04/26 03:33:32;;;;;;;7.00;5.70;;;2.30;19.70;;;;;;5372954;26;20384;-70
2024/04/26 03:35:57;;;;;;;9.43;5.93;;;2.40;19.50;;;;;;5372327;26;20610;-71
2024/04/26 03:38:24;;;;;;;9.20;7.00;;;2.40;18.70;;;;;;5372626;26;20220;-69
2024/04/26 03:40:50;;;;;;;7.28;5.72;;;2.40;17.60;;;;;;5372690;26;20575;-69
2024/04/26 03:43:17;;;;;;;8.73;6.23;;;2.40;17.70;;;;;;5372929;26;20270;-70
2024/04/26 03:45:44;;;;;;;9.60;7.38;;;2.40;17.40;;;;;;5371951;26;20229;-70
2024/04/26 03:48:09;;;;;;;7.03;5.40;;;2.40;17.60;;;;;;5372847;26;20217;-70
2024/04/26 03:50:35;;;;;;;8.70;6.00;;;2.40;18.00;;;;;;5372458;26;20554;-69
2024/04/26 03:53:01;;;;;;;9.80;5.33;;;2.40;17.40;;;;;;5372639;26;20233;-71
2024/04/26 03:55:26;;;;;;;8.20;6.93;;;2.40;17.50;;;;;;5372124;26;20258;-69
2024/04/26 03:57:52;;;;;;;6.83;5.33;;;2.40;16.40;;;;;;5371959;26;20229;-68
2024/04/26 04:00:17;;;;;;;9.30;6.37;;;2.30;16.80;;;;;;5372124;26;20283;-71
2024/04/26 04:02:43;;;;;;;11.07;6.10;;;2.40;17.00;;;;;;5372406;26;20317;-69
2024/04/26 04:05:09;;;;;;;7.20;5.83;;;2.40;16.40;;;;;;5371909;26;20221;-69
2024/04/26 04:07:34;;;;;;;7.77;6.03;;;2.40;15.00;;;;;;5372413;26;20635;-69
2024/04/26 04:10:00;;;;;;;8.30;5.57;;;2.40;14.20;;;;;;5370119;26;20271;-70
2024/04/26 04:12:25;;;;;;;9.20;5.40;;;2.40;13.80;;;;;;5372295;26;20697;-70
2024/04/26 04:14:51;;;;;;;11.47;5.37;;;2.40;13.90;;;;;;5372133;26;20217;-70
2024/04/26 04:17:16;;;;;;;6.63;4.70;;;2.40;13.10;;;;;;5371743;26;20217;-69
2024/04/26 04:19:43;;;;;;;5.87;4.97;;;2.40;11.90;;;;;;5371821;26;20278;-69
2024/04/26 04:22:08;;;;;;;7.72;5.38;;;2.40;12.20;;;;;;5371748;26;20234;-69
2024/04/26 04:24:34;;;;;;;8.47;5.93;;;2.40;13.10;;;;;;5371804;26;20345;-70
2024/04/26 04:26:59;;;;;;;8.77;5.80;;;2.40;13.60;;;;;;5371892;26;20281;-69
2024/04/26 04:29:25;;;;;;;10.27;6.50;;;2.50;13.60;;;;;;5371957;26;20285;-70
2024/04/26 04:31:51;;;;;;;6.90;4.93;;;2.60;12.20;;;;;;5370241;26;20230;-71
2024/04/26 04:34:16;;;;;;;7.23;5.23;;;2.70;11.90;;;;;;5371836;26;20755;-71
2024/04/26 04:36:42;;;;;;;6.67;4.67;;;2.80;10.90;;;;;;5371690;26;20430;-70
2024/04/26 04:39:07;;;;;;;5.13;4.53;;;2.80;10.20;;;;;;5371325;26;20275;-69
2024/04/26 04:41:33;;;;;;;6.63;4.87;;;2.80;10.20;;;;;;5372063;26;20226;-71
2024/04/26 04:43:59;;;;;;;8.30;5.93;;;2.90;10.20;;;;;;5371607;26;20623;-68
2024/04/26 04:46:24;;;;;;;6.90;4.90;;;3.00;9.00;;;;;;5371188;26;20604;-71
2024/04/26 04:48:50;;;;;;;6.77;4.80;;;2.90;10.20;;;;;;5369584;26;20227;-70
2024/04/26 04:51:15;;;;;;;10.57;6.43;;;3.00;10.30;;;;;;5371529;26;20239;-70
2024/04/26 04:53:41;;;;;;;8.67;5.93;;;3.10;10.40;;;;;;5371298;26;20229;-71
2024/04/26 04:56:06;;;;;;;7.47;5.03;;;3.20;9.40;;;;;;5369592;26;20221;-70
2024/04/26 04:58:32;;;;;;;8.23;5.40;;;3.30;9.40;;;;;;5371563;26;20232;-70
2024/04/26 05:00:57;;;;;;;7.90;5.90;;;3.40;8.40;;;;;;5371707;26;20843;-70
2024/04/26 05:03:23;;;;;;;9.80;5.90;;;3.50;8.20;;;;;;5371624;26;20344;-70
2024/04/26 05:05:49;;;;;;;7.63;5.23;;;3.60;8.30;;;;;;5371017;26;20296;-71
2024/04/26 05:08:15;;;;;;;9.00;5.33;;;3.70;8.40;;;;;;5370634;26;20621;-70
2024/04/26 05:10:40;;;;;;;8.07;5.30;;;3.80;7.20;;;;;;5370811;26;20476;-70
2024/04/26 05:13:06;;;;;;;9.33;5.50;;;4.00;5.90;;;;;;5371283;26;20408;-70
2024/04/26 05:15:34;;;;;;;8.13;4.60;;;4.10;5.00;;;;;;5370682;26;20260;-69
2024/04/26 05:18:01;;;;;;;9.57;5.03;;;4.30;3.30;;;;;;5371280;26;20236;-70
2024/04/26 05:20:27;;;;;;;6.15;4.10;;;4.50;1.80;;;;;;5370319;26;20243;-70
2024/04/26 05:22:52;;;;;;;4.90;3.80;;;4.80;1.00;;;;;;5373098;26;20304;-69
2024/04/26 05:25:18;;;;;;;4.80;3.40;;;5.10;1.00;;;;;;5372067;26;20219;-69
2024/04/26 05:27:46;;;;;;;8.10;4.53;;;5.30;1.00;;;;;;5369937;26;20272;-70
2024/04/26 05:30:14;;;;;;;6.20;3.43;;;5.60;1.00;;;;;;5371147;26;20237;-69
2024/04/26 05:32:40;;;;;;;6.53;2.90;;;5.80;1.00;;;;;;5371241;26;20463;-70
2024/04/26 05:35:06;;;;;;;3.97;3.40;;;6.10;1.00;;;;;;5371808;26;20451;-70
2024/04/26 05:37:32;;;;;;;5.63;2.70;;;6.40;1.00;;;;;;5372352;26;20505;-70
2024/04/26 05:39:58;;;;;;;5.27;3.50;;;6.60;1.00;;;;;;5371039;26;20451;-71
2024/04/26 05:42:24;;;;;;;4.60;2.47;;;6.80;1.00;;;;;;5369557;26;20541;-70
2024/04/26 05:44:49;;;;;;;3.40;2.60;;;7.10;1.00;;;;;;5371126;26;20750;-71
2024/04/26 05:47:15;;;;;;;4.23;2.97;;;7.40;1.00;;;;;;5371317;26;20272;-71
2024/04/26 05:49:40;;;;;;;5.77;3.23;;;7.60;1.00;;;;;;5371199;26;20816;-69
2024/04/26 05:52:09;;;;;;;7.87;4.80;;;7.70;1.00;;;;;;5371225;26;20269;-72
2024/04/26 05:54:34;;;;;;;10.23;5.70;;;7.50;1.00;;;;;;5371162;26;20222;-70
2024/04/26 05:57:00;;;;;;;11.33;5.80;;;7.20;1.00;;;;;;5371483;26;20816;-71
2024/04/26 05:59:26;;;;;;;4.97;4.47;;;6.90;1.00;;;;;;5371298;26;20269;-70
2024/04/26 06:01:52;;;;;;;8.47;4.80;;;6.60;1.00;;;;;;5369416;26;20233;-71
2024/04/26 06:04:17;;;;;;;7.43;5.10;;;6.20;1.00;;;;;;5369177;26;20846;-71
2024/04/26 06:06:46;;;;;;;12.07;5.47;;;6.10;1.00;;;;;;5370929;26;20267;-70
2024/04/26 06:09:12;;;;;;;7.70;5.73;;;6.20;1.00;;;;;;5369351;26;20468;-71
2024/04/26 06:11:38;;;;;;;8.03;4.60;;;6.10;1.00;;;;;;5370759;26;20451;-70
2024/04/26 06:14:03;;;;;;;7.60;5.17;;;6.20;1.00;;;;;;5370589;26;20451;-71
2024/04/26 06:16:29;;;;;;;9.43;5.33;;;6.00;1.00;;;;;;5370759;26;20820;-70
2024/04/26 06:18:54;;;;;;;8.10;4.90;;;5.90;1.00;;;;;;5371033;26;20221;-69
2024/04/26 06:21:20;;;;;;;10.37;4.73;;;5.90;1.00;;;;;;5373858;26;20582;-72
2024/04/26 06:23:46;;;;;;;7.50;5.50;;;5.90;1.00;;;;;;5374895;26;20464;-70
2024/04/26 06:26:13;;;;;;;10.07;6.00;;;5.90;1.00;;;;;;5374870;26;20819;-69
2024/04/26 06:28:42;;;;;;;8.03;5.93;;;5.70;1.00;;;;;;5375507;26;20224;-69
2024/04/26 06:31:08;;;;;;;8.80;5.10;;;5.70;1.00;;;;;;5375171;26;21086;-71
2024/04/26 06:33:34;;;;;;;5.57;5.00;;;5.60;1.00;;;;;;5376653;26;20462;-69
2024/04/26 06:35:59;;;;;;;8.70;6.63;;;5.70;1.00;;;;;;5379959;26;20506;-70
2024/04/26 06:38:25;;;;;;;6.27;5.37;;;5.80;1.00;;;;;;5381944;26;20754;-70
2024/04/26 06:40:50;;;;;;;7.27;5.50;;;5.90;1.00;;;;;;5380620;26;20245;-69
2024/04/26 06:43:16;;;;;;;11.43;5.60;;;6.10;1.20;;;;;;5378848;26;20734;-69
2024/04/26 06:45:41;;;;;;;8.00;5.90;;;6.30;2.00;;;;;;5376444;26;20233;-70
2024/04/26 06:48:07;;;;;;;12.00;7.37;;;6.70;3.10;;;;;;5377867;26;20672;-70
2024/04/26 06:50:33;;;;;;;7.57;6.07;;;7.10;4.10;;;;;;5376472;26;20371;-70
2024/04/26 06:52:58;;;;;;;9.47;6.60;;;7.80;2.90;;;;;;5373964;26;20464;-70
2024/04/26 06:55:24;;;;;;;7.13;5.33;;;8.50;1.00;;;;;;5372291;26;20575;-69
2024/04/26 06:57:49;;;;;;;6.70;5.13;;;9.10;1.00;;;;;;5374718;26;20223;-70
2024/04/26 07:00:15;;;;;;;7.87;5.50;;;9.80;1.00;;;;;;5372505;26;20824;-70
2024/04/26 07:02:41;;;;;;;5.13;3.90;;;10.10;1.00;;;;;;5374341;26;20226;-70
2024/04/26 07:05:06;;;;;;;5.70;4.90;;;10.00;1.00;;;;;;5371995;26;20248;-71
2024/04/26 07:07:32;;;;;;;8.73;5.60;;;9.90;1.00;;;;;;5372008;26;20734;-70
2024/04/26 07:09:58;;;;;;;7.10;4.77;;;9.70;1.00;;;;;;5372060;26;20240;-70
2024/04/26 07:12:23;;;;;;;7.00;4.90;;;9.70;1.00;;;;;;5372477;26;20237;-69
2024/04/26 07:14:49;;;;;;;10.43;3.77;;;9.70;1.00;;;;;;5374362;26;20224;-70
2024/04/26 07:17:14;;;;;;;6.93;4.30;;;9.90;1.00;;;;;;5372224;26;20263;-69
2024/04/26 07:19:41;;;;;;;6.30;3.20;;;10.10;1.00;;;;;;5374073;26;20340;-70
2024/04/26 07:22:08;;;;;;;5.23;3.00;;;10.20;1.00;;;;;;5373531;26;20220;-70
2024/04/26 07:24:34;;;;;;;6.57;3.00;;;10.30;1.00;;;;;;5373396;26;20451;-70
2024/04/26 07:27:00;;;;;;;3.40;2.47;;;10.30;1.00;;;;;;5373325;26;20987;-69
2024/04/26 07:29:25;;;;;;;3.50;2.67;;;10.50;1.00;;;;;;5373327;26;20518;-69
2024/04/26 07:31:51;;;;;;;5.30;3.20;;;10.90;1.00;;;;;;5372967;26;20331;-70
2024/04/26 07:34:17;;;;;;;4.37;2.60;;;11.40;1.00;;;;;;5373455;26;20220;-69
2024/04/26 07:36:43;;;;;;;4.10;2.30;;;11.70;1.00;;;;;;5373962;26;20221;-70
2024/04/26 07:39:09;;;;;;;4.20;2.50;;;12.00;1.00;;;;;;5373426;26;20272;-70
2024/04/26 07:41:35;;;;;;;4.00;2.80;;;12.10;1.00;;;;;;5374237;26;20492;-70
2024/04/26 07:44:01;;;;;;;3.03;2.27;;;12.60;1.00;;;;;;5373413;26;20835;-71
2024/04/26 07:46:26;;;;;;;3.60;2.40;;;13.10;1.00;;;;;;5374046;26;20324;-70
2024/04/26 07:48:53;;;;;;;4.70;2.30;;;13.10;1.00;;;;;;5371620;26;20993;-70
2024/04/26 07:51:18;;;;;;;5.73;4.33;;;13.10;1.00;;;;;;5359089;21;20269;-70
2024/04/26 07:53:44;;;;;;;7.47;4.80;;;12.60;1.00;;;;;;5336873;26;20515;-71
2024/04/26 07:56:09;;;;;;;7.40;5.10;;;12.40;1.00;;;;;;5336082;26;20219;-71
2024/04/26 07:58:35;;;;;;;6.90;4.90;;;12.10;1.00;;;;;;5336752;26;20269;-71
2024/04/26 08:01:01;;;;;;;6.60;5.50;;;12.00;1.00;;;;;;5334944;26;20242;-71
2024/04/26 08:03:26;;;;;;;10.47;5.03;;;12.00;1.00;;;;;;5336534;26;20219;-71
2024/04/26 08:05:54;;;;;;;6.00;4.77;;;11.70;1.00;;;;;;5336336;26;20253;-71
2024/04/26 08:08:20;;;;;;;8.67;5.23;;;11.40;1.00;;;;;;5336510;26;20775;-70
2024/04/26 08:10:46;;;;;;;5.23;4.73;;;11.10;1.00;;;;;;5334636;26;20456;-71
2024/04/26 08:13:11;;;;;;;5.57;4.57;;;10.90;1.00;;;;;;5336513;26;20303;-71
2024/04/26 08:15:37;;;;;;;7.63;5.10;;;10.80;1.00;;;;;;5335973;26;20218;-71
2024/04/26 08:18:04;;;;;;;5.40;4.17;;;11.10;1.00;;;;;;5336725;26;20222;-71
2024/04/26 08:20:29;;;;;;;4.70;3.30;;;11.40;1.00;;;;;;5336382;26;20234;-70
2024/04/26 08:22:55;;;;;;;4.97;2.63;;;11.70;1.00;;;;;;5334746;26;20456;-70
2024/04/26 08:25:21;;;;;;;4.60;2.80;;;12.00;1.00;;;;;;5334441;26;20279;-70
2024/04/26 08:27:46;;;;;;;4.00;2.30;;;12.60;1.00;;;;;;5336583;26;20223;-70
2024/04/26 08:30:12;;;;;;;3.13;2.23;;;12.70;1.00;;;;;;5337038;26;20240;-70
2024/04/26 08:32:37;;;;;;;2.93;1.80;;;12.60;1.00;;;;;;5336472;26;20218;-71
2024/04/26 08:35:03;;;;;;;3.40;2.20;;;12.90;1.00;;;;;;5334562;26;20226;-71
2024/04/26 08:37:29;;;;;;;4.53;2.50;;;13.20;1.00;;;;;;5336460;26;20224;-71
2024/04/26 08:39:55;;;;;;;3.83;2.87;;;13.50;1.00;;;;;;5336185;26;20518;-71
2024/04/26 08:42:23;;;;;;;4.87;1.90;;;13.40;1.00;;;;;;5334288;26;20225;-71
2024/04/26 08:44:48;;;;;;;5.07;1.97;;;13.30;1.00;;;;;;5332939;26;20266;-71
2024/04/26 08:47:18;;;;;;;2.87;1.90;;;13.00;1.00;;;;;;5335852;26;20505;-70
2024/04/26 08:49:46;;;;;;;4.57;1.87;;;13.20;1.00;;;;;;5334153;26;20241;-70
2024/04/26 08:52:14;;;;;;;4.03;1.53;;;13.60;1.00;;;;;;5336040;26;20444;-71
2024/04/26 08:54:40;;;;;;;3.70;1.57;;;14.00;1.00;;;;;;5334242;26;20464;-70
2024/04/26 08:57:06;;;;;;;3.20;1.20;;;13.60;1.00;;;;;;5335736;26;20501;-71
2024/04/26 08:59:48;;;;;;;6.33;1.80;;;13.70;1.00;;;;;;5334586;26;20350;-70
2024/04/26 09:02:14;;;;;;;2.97;1.60;;;14.60;1.00;;;;;;5336677;26;20497;-70
2024/04/26 09:04:40;;;;;;;3.43;2.13;;;14.90;1.00;;;;;;5336027;26;20444;-71
2024/04/26 09:07:06;;;;;;;5.30;2.27;;;14.80;1.00;;;;;;5335958;26;20506;-70
2024/04/26 09:09:31;;;;;;;2.20;1.47;;;14.70;1.00;;;;;;5335936;26;20767;-70
2024/04/26 09:11:59;;;;;;;2.63;1.70;;;14.60;1.00;;;;;;5336051;26;20271;-71
2024/04/26 09:14:24;;;;;;;2.43;1.60;;;14.30;1.00;;;;;;5336337;26;20226;-72
2024/04/26 09:16:50;;;;;;;2.63;1.73;;;14.60;1.00;;;;;;5333978;26;20490;-71
2024/04/26 09:19:15;;;;;;;4.43;1.80;;;14.90;1.00;;;;;;5335822;26;20732;-71
2024/04/26 09:21:41;;;;;;;2.50;1.50;;;15.20;1.00;;;;;;5334063;26;20594;-71
2024/04/26 09:24:06;;;;;;;2.10;1.50;;;15.60;1.00;;;;;;5333938;26;20244;-70
2024/04/26 09:26:32;;;;;;;3.47;1.40;;;15.50;1.00;;;;;;5335211;26;20226;-71
2024/04/26 09:28:58;;;;;;;3.27;2.03;;;15.70;1.00;;;;;;5335535;26;20274;-71
2024/04/26 09:31:23;;;;;;;3.03;1.60;;;16.30;1.00;;;;;;5335596;26;20618;-71
2024/04/26 09:33:54;;;;;;;2.30;1.40;;;15.80;1.00;;;;;;5333843;26;20504;-71
2024/04/26 09:36:27;;;;;;;2.43;1.30;;;15.40;1.00;;;;;;5335407;26;20711;-71
2024/04/26 09:38:56;;;;;;;2.53;1.67;;;15.40;1.00;;;;;;5334372;26;20453;-71
2024/04/26 09:41:23;;;;;;;2.50;2.00;;;15.90;1.00;;;;;;5335853;26;20468;-70
2024/04/26 09:43:49;;;;;;;2.43;1.70;;;15.90;1.00;;;;;;5335600;26;20444;-70
2024/04/26 09:46:19;;;;;;;2.57;1.40;;;15.90;1.00;;;;;;5335150;26;20791;-70
2024/04/26 09:48:47;;;;;;;2.30;1.63;;;15.40;1.00;;;;;;5335760;26;20959;-70
2024/04/26 09:51:14;;;;;;;2.40;1.80;;;15.60;1.00;;;;;;5335202;26;20871;-70
2024/04/26 09:53:43;;;;;;;2.37;1.60;;;15.50;1.00;;;;;;5335217;26;20625;-70
2024/04/26 09:56:10;;;;;;;1.83;1.50;;;15.40;1.00;;;;;;5334284;26;20497;-70
2024/04/26 09:58:36;;;;;;;2.30;1.53;;;15.90;1.00;;;;;;5333427;26;20502;-70
2024/04/26 10:01:04;;;;;;;1.80;1.30;;;15.90;1.00;;;;;;5333163;26;20526;-70
2024/04/26 10:03:32;;;;;;;3.40;2.50;;;16.00;1.00;;;;;;5335484;26;20872;-70
2024/04/26 10:06:02;;;;;;;2.57;1.97;;;15.80;1.00;;;;;;5335404;26;20444;-70
2024/04/26 10:08:33;;;;;;;2.80;1.70;;;16.00;1.00;;;;;;5335206;26;20516;-70
2024/04/26 10:11:09;;;;;;;2.07;1.50;;;16.20;1.00;;;;;;5334591;26;20481;-70
2024/04/26 10:13:45;;;;;;;2.10;1.80;;;16.30;1.00;;;;;;5334820;26;20498;-70
2024/04/26 10:16:11;;;;;;;2.30;1.80;;;16.40;1.00;;;;;;5334231;26;20472;-71
2024/04/26 10:18:38;;;;;;;2.10;1.60;;;16.40;1.00;;;;;;5335124;26;20449;-72
2024/04/26 10:21:05;;;;;;;3.83;1.67;;;16.30;1.00;;;;;;5335139;26;20588;-72
2024/04/26 10:23:32;;;;;;;1.97;1.57;;;16.30;1.00;;;;;;5334572;26;20452;-70
2024/04/26 10:26:08;;;;;;;2.10;1.43;;;16.90;1.00;;;;;;5333869;26;20503;-70
2024/04/26 10:28:35;;;;;;;2.37;1.60;;;16.20;1.00;;;;;;5334485;26;20524;-70
2024/04/26 10:31:01;;;;;;;2.10;1.60;;;16.40;1.00;;;;;;5334245;26;21094;-70
2024/04/26 10:33:32;;;;;;;2.00;1.37;;;16.30;1.00;;;;;;5334374;26;20449;-70
2024/04/26 10:36:09;;;;;;;2.80;2.23;;;15.70;1.00;;;;;;5334208;26;20674;-70
2024/04/26 10:38:46;;;;;;;2.00;1.47;;;15.50;1.00;;;;;;5334542;26;20583;-71
2024/04/26 10:41:17;;;;;;;2.40;1.80;;;15.20;1.00;;;;;;5334291;26;21077;-71
2024/04/26 10:43:42;;;;;;;2.13;1.60;;;15.40;1.00;;;;;;5332238;26;20504;-70
2024/04/26 10:46:08;;;;;;;5.70;1.60;;;15.40;1.00;;;;;;5333727;26;20452;-71
2024/04/26 10:48:35;;;;;;;2.87;1.77;;;15.10;1.00;;;;;;5334360;26;20252;-70
2024/04/26 10:51:04;;;;;;;2.90;1.67;;;14.80;1.00;;;;;;5333765;26;20281;-70
2024/04/26 10:53:33;;;;;;;2.23;1.80;;;14.80;1.00;;;;;;5333528;26;21165;-71
2024/04/26 10:56:03;;;;;;;2.20;1.73;;;14.90;1.00;;;;;;5334315;26;20444;-70
2024/04/26 10:58:39;;;;;;;2.20;1.70;;;15.40;1.00;;;;;;5334735;26;20460;-71
2024/04/26 11:01:13;;;;;;;2.20;1.90;;;15.80;1.00;;;;;;5332672;26;20488;-70
2024/04/26 11:03:39;;;;;;;3.97;2.50;;;16.10;1.00;;;;;;5332363;26;20534;-71
2024/04/26 11:06:05;;;;;;;3.50;2.30;;;16.10;1.00;;;;;;5333998;26;20453;-72
2024/04/26 11:08:30;;;;;;;2.30;1.70;;;16.10;1.00;;;;;;5337201;26;20551;-71
2024/04/26 11:11:06;;;;;;;2.17;1.97;;;16.10;1.00;;;;;;5337080;26;20233;-71
2024/04/26 11:13:32;;;;;;;1.90;1.60;;;15.60;1.00;;;;;;5337813;26;20233;-71
2024/04/26 11:15:58;;;;;;;2.40;2.17;;;15.60;1.00;;;;;;5338061;26;20460;-72
2024/04/26 11:18:24;;;;;;;3.13;1.93;;;15.70;1.00;;;;;;5337091;26;20864;-71
2024/04/26 11:20:50;;;;;;;2.10;1.80;;;15.70;1.00;;;;;;5337468;26;20472;-71
2024/04/26 11:23:15;;;;;;;3.17;2.10;;;15.80;1.00;;;;;;5337446;26;20261;-71
2024/04/26 11:25:41;;;;;;;2.53;1.67;;;15.60;1.00;;;;;;5336697;26;20272;-71
2024/04/26 11:28:06;;;;;;;2.20;1.90;;;16.10;1.00;;;;;;5337632;26;20291;-70
2024/04/26 11:30:32;;;;;;;3.27;2.10;;;16.00;1.00;;;;;;5337078;26;20587;-70
2024/04/26 11:32:58;;;;;;;2.97;2.30;;;16.00;1.00;;;;;;5337430;26;20226;-70
2024/04/26 11:35:23;;;;;;;22.53;3.93;;;16.10;1.00;;;;;;5337187;26;20217;-70
2024/04/26 11:37:49;;;;;;;5.10;2.60;;;15.90;1.00;;;;;;5337540;26;20264;-70
2024/04/26 11:40:14;;;;;;;3.60;2.63;;;15.60;1.00;;;;;;5336996;26;20234;-70
2024/04/26 11:42:40;;;;;;;2.20;1.90;;;15.10;1.00;;;;;;5336969;26;20437;-70
2024/04/26 11:45:06;;;;;;;5.23;2.87;;;14.60;1.00;;;;;;5334910;26;20272;-70
2024/04/26 11:47:32;;;;;;;6.40;5.10;;;14.10;1.00;;;;;;5336660;26;20272;-70
2024/04/26 11:49:58;;;;;;;4.43;2.80;;;13.80;1.00;;;;;;5334686;26;20472;-71
2024/04/26 11:52:23;;;;;;;2.23;1.13;;;13.70;1.00;;;;;;5335579;26;20236;-70
2024/04/26 11:54:49;;;;;;;3.40;1.47;;;13.40;1.00;;;;;;5334990;26;20496;-71
2024/04/26 11:57:14;;;;;;;2.67;1.50;;;13.40;1.00;;;;;;5334813;26;20237;-71
2024/04/26 11:59:41;;;;;;;6.40;1.63;;;13.10;1.00;;;;;;5336850;26;20241;-70
2024/04/26 12:02:10;;;;;;;2.10;1.13;;;13.00;1.00;;;;;;5337365;26;20681;-71
2024/04/26 12:04:36;;;;;;;2.33;1.37;;;13.00;1.00;;;;;;5337008;26;20463;-71
2024/04/26 12:07:01;;;;;;;4.67;1.33;;;13.30;1.00;;;;;;5337193;26;20577;-72
2024/04/26 12:09:27;;;;;;;2.20;1.40;;;13.40;1.00;;;;;;5337090;26;20339;-71
2024/04/26 12:11:52;;;;;;;2.50;1.13;;;14.00;1.00;;;;;;5336324;26;20305;-71
2024/04/26 12:14:18;;;;;;;2.53;1.33;;;15.10;1.00;;;;;;5334714;26;20673;-72
2024/04/26 12:16:47;;;;;;;3.80;1.50;;;15.40;1.00;;;;;;5336504;26;20741;-72
2024/04/26 12:19:13;;;;;;;4.97;1.90;;;14.70;1.00;;;;;;5336240;26;20762;-71
2024/04/26 12:21:38;;;;;;;2.87;1.67;;;14.70;1.00;;;;;;5336496;26;20452;-72
2024/04/26 12:24:04;;;;;;;2.27;1.50;;;14.90;1.00;;;;;;5336441;26;20754;-71
2024/04/26 12:26:30;;;;;;;3.47;2.10;;;14.40;1.00;;;;;;5336278;26;20286;-71
2024/04/26 12:28:55;;;;;;;4.57;1.40;;;14.70;1.00;;;;;;5336514;26;20451;-70
2024/04/26 12:31:21;;;;;;;3.17;1.90;;;14.20;1.00;;;;;;5336224;26;20234;-71
2024/04/26 12:33:48;;;;;;;1.90;1.10;;;14.20;1.00;;;;;;5336519;26;20229;-73
2024/04/26 12:36:13;;;;;;;1.83;1.13;;;14.20;1.00;;;;;;5336102;26;20563;-72
2024/04/26 12:38:39;;;;;;;1.80;1.00;;;14.00;1.00;;;;;;5336488;26;20460;-72
2024/04/26 12:41:05;;;;;;;4.80;1.13;;;14.40;1.00;;;;;;5334796;26;20288;-71
2024/04/26 12:43:32;;;;;;;2.33;1.20;;;14.80;1.00;;;;;;5336178;26;20222;-71
2024/04/26 12:45:57;;;;;;;1.80;1.10;;;14.90;1.00;;;;;;5335918;26;20561;-71
2024/04/26 12:48:24;;;;;;;1.90;1.50;;;15.20;1.00;;;;;;5336195;26;20592;-71
2024/04/26 12:50:49;;;;;;;2.63;1.23;;;15.50;1.00;;;;;;5336687;26;20334;-70
2024/04/26 12:53:15;;;;;;;2.00;1.50;;;15.30;1.00;;;;;;5334529;26;20449;-70